sensor_id;sensor_type;location;lat;lon;timestamp;P1;durP1;ratioP1;P2;durP2;ratioP2
8993;SDS011;4532;50.886;4.700;2023-08-24T00:01:14;7.72;;;4.40;;
8993;SDS011;4532;50.886;4.700;2023-08-24T00:03:46;7.85;;;4.63;;
8993;SDS011;4532;50.886;4.700;2023-08-24T00:06:18;6.82;;;4.75;;
8993;SDS011;4532;50.886;4.700;2023-08-24T00:08:48;7.47;;;4.60;;
8993;SDS011;4532;50.886;4.700;2023-08-24T00:11:15;8.38;;;4.93;;
8993;SDS011;4532;50.886;4.700;2023-08-24T00:13:45;7.10;;;4.88;;
8993;SDS011;4532;50.886;4.700;2023-08-24T00:16:21;8.70;;;5.07;;
8993;SDS011;4532;50.886;4.700;2023-08-24T00:18:50;7.13;;;5.25;;
8993;SDS011;4532;50.886;4.700;2023-08-24T00:21:23;6.47;;;5.13;;
8993;SDS011;4532;50.886;4.700;2023-08-24T00:23:52;7.13;;;5.15;;
8993;SDS011;4532;50.886;4.700;2023-08-24T00:26:20;8.23;;;4.80;;
8993;SDS011;4532;50.886;4.700;2023-08-24T00:28:47;5.10;;;4.60;;
8993;SDS011;4532;50.886;4.700;2023-08-24T00:31:15;5.82;;;4.72;;
8993;SDS011;4532;50.886;4.700;2023-08-24T00:33:44;5.28;;;4.70;;
8993;SDS011;4532;50.886;4.700;2023-08-24T00:36:14;5.88;;;4.60;;
8993;SDS011;4532;50.886;4.700;2023-08-24T00:38:44;6.60;;;4.85;;
8993;SDS011;4532;50.886;4.700;2023-08-24T00:41:19;8.20;;;4.57;;
8993;SDS011;4532;50.886;4.700;2023-08-24T00:43:48;7.03;;;5.43;;
8993;SDS011;4532;50.886;4.700;2023-08-24T00:46:19;6.88;;;5.43;;
8993;SDS011;4532;50.886;4.700;2023-08-24T00:48:47;8.95;;;5.00;;
8993;SDS011;4532;50.886;4.700;2023-08-24T00:51:14;7.13;;;5.22;;
8993;SDS011;4532;50.886;4.700;2023-08-24T00:53:44;10.20;;;5.50;;
8993;SDS011;4532;50.886;4.700;2023-08-24T00:56:15;9.07;;;5.53;;
8993;SDS011;4532;50.886;4.700;2023-08-24T00:58:46;7.93;;;5.88;;
8993;SDS011;4532;50.886;4.700;2023-08-24T01:01:14;7.18;;;5.38;;
8993;SDS011;4532;50.886;4.700;2023-08-24T01:03:44;7.45;;;5.32;;
8993;SDS011;4532;50.886;4.700;2023-08-24T01:06:16;7.35;;;5.25;;
8993;SDS011;4532;50.886;4.700;2023-08-24T01:08:43;8.50;;;5.97;;
8993;SDS011;4532;50.886;4.700;2023-08-24T01:13:51;6.88;;;5.95;;
8993;SDS011;4532;50.886;4.700;2023-08-24T01:16:33;8.10;;;6.10;;
8993;SDS011;4532;50.886;4.700;2023-08-24T01:19:10;9.43;;;6.40;;
8993;SDS011;4532;50.886;4.700;2023-08-24T01:27:32;10.68;;;6.63;;
8993;SDS011;4532;50.886;4.700;2023-08-24T01:30:04;9.90;;;6.50;;
8993;SDS011;4532;50.886;4.700;2023-08-24T01:32:35;8.85;;;6.53;;
8993;SDS011;4532;50.886;4.700;2023-08-24T01:35:06;9.27;;;7.05;;
8993;SDS011;4532;50.886;4.700;2023-08-24T01:37:37;7.78;;;6.25;;
8993;SDS011;4532;50.886;4.700;2023-08-24T01:40:19;9.10;;;6.63;;
8993;SDS011;4532;50.886;4.700;2023-08-24T01:43:04;8.90;;;6.20;;
8993;SDS011;4532;50.886;4.700;2023-08-24T01:45:36;5.85;;;5.25;;
8993;SDS011;4532;50.886;4.700;2023-08-24T01:48:06;7.45;;;5.78;;
8993;SDS011;4532;50.886;4.700;2023-08-24T01:50:36;8.80;;;5.40;;
8993;SDS011;4532;50.886;4.700;2023-08-24T01:53:04;8.95;;;5.43;;
8993;SDS011;4532;50.886;4.700;2023-08-24T01:55:33;8.07;;;5.55;;
8993;SDS011;4532;50.886;4.700;2023-08-24T01:58:01;8.18;;;5.97;;
8993;SDS011;4532;50.886;4.700;2023-08-24T02:00:30;9.98;;;6.30;;
8993;SDS011;4532;50.886;4.700;2023-08-24T02:02:57;9.60;;;6.65;;
8993;SDS011;4532;50.886;4.700;2023-08-24T02:05:25;9.90;;;6.85;;
8993;SDS011;4532;50.886;4.700;2023-08-24T02:07:54;7.22;;;6.00;;
8993;SDS011;4532;50.886;4.700;2023-08-24T02:10:24;6.68;;;5.95;;
8993;SDS011;4532;50.886;4.700;2023-08-24T02:12:53;7.28;;;5.72;;
8993;SDS011;4532;50.886;4.700;2023-08-24T02:15:21;8.55;;;6.18;;
8993;SDS011;4532;50.886;4.700;2023-08-24T02:17:48;9.07;;;6.18;;
8993;SDS011;4532;50.886;4.700;2023-08-24T02:20:18;9.18;;;6.25;;
8993;SDS011;4532;50.886;4.700;2023-08-24T02:22:48;8.18;;;6.55;;
8993;SDS011;4532;50.886;4.700;2023-08-24T02:25:17;7.25;;;6.38;;
8993;SDS011;4532;50.886;4.700;2023-08-24T02:27:47;7.85;;;6.63;;
8993;SDS011;4532;50.886;4.700;2023-08-24T02:30:15;8.48;;;5.97;;
8993;SDS011;4532;50.886;4.700;2023-08-24T02:32:43;7.78;;;6.30;;
8993;SDS011;4532;50.886;4.700;2023-08-24T02:35:12;12.07;;;6.63;;
8993;SDS011;4532;50.886;4.700;2023-08-24T02:37:40;7.65;;;6.25;;
8993;SDS011;4532;50.886;4.700;2023-08-24T02:40:09;8.75;;;5.80;;
8993;SDS011;4532;50.886;4.700;2023-08-24T02:42:38;7.63;;;5.68;;
8993;SDS011;4532;50.886;4.700;2023-08-24T02:45:07;8.25;;;6.03;;
8993;SDS011;4532;50.886;4.700;2023-08-24T02:47:35;7.00;;;6.22;;
8993;SDS011;4532;50.886;4.700;2023-08-24T02:50:04;7.10;;;5.90;;
8993;SDS011;4532;50.886;4.700;2023-08-24T02:52:35;8.90;;;6.13;;
8993;SDS011;4532;50.886;4.700;2023-08-24T02:55:02;9.93;;;6.20;;
8993;SDS011;4532;50.886;4.700;2023-08-24T02:57:30;7.70;;;6.72;;
8993;SDS011;4532;50.886;4.700;2023-08-24T03:00:00;9.70;;;6.80;;
8993;SDS011;4532;50.886;4.700;2023-08-24T03:02:30;9.18;;;5.93;;
8993;SDS011;4532;50.886;4.700;2023-08-24T03:04:57;10.93;;;6.85;;
8993;SDS011;4532;50.886;4.700;2023-08-24T03:07:24;9.57;;;6.65;;
8993;SDS011;4532;50.886;4.700;2023-08-24T03:09:54;7.63;;;6.28;;
8993;SDS011;4532;50.886;4.700;2023-08-24T03:12:26;10.07;;;6.47;;
8993;SDS011;4532;50.886;4.700;2023-08-24T03:14:53;8.45;;;6.15;;
8993;SDS011;4532;50.886;4.700;2023-08-24T03:17:21;8.65;;;6.35;;
8993;SDS011;4532;50.886;4.700;2023-08-24T03:19:50;8.63;;;6.60;;
8993;SDS011;4532;50.886;4.700;2023-08-24T03:22:20;8.05;;;6.30;;
8993;SDS011;4532;50.886;4.700;2023-08-24T03:24:47;8.63;;;6.05;;
8993;SDS011;4532;50.886;4.700;2023-08-24T03:27:16;10.27;;;6.45;;
8993;SDS011;4532;50.886;4.700;2023-08-24T03:29:46;7.28;;;6.10;;
8993;SDS011;4532;50.886;4.700;2023-08-24T03:32:17;10.25;;;6.32;;
8993;SDS011;4532;50.886;4.700;2023-08-24T03:34:47;8.48;;;6.25;;
8993;SDS011;4532;50.886;4.700;2023-08-24T03:37:19;8.90;;;7.05;;
8993;SDS011;4532;50.886;4.700;2023-08-24T03:39:49;8.27;;;6.53;;
8993;SDS011;4532;50.886;4.700;2023-08-24T03:42:18;9.77;;;6.95;;
8993;SDS011;4532;50.886;4.700;2023-08-24T03:44:47;8.27;;;6.07;;
8993;SDS011;4532;50.886;4.700;2023-08-24T03:47:22;8.70;;;6.40;;
8993;SDS011;4532;50.886;4.700;2023-08-24T03:49:49;8.65;;;6.18;;
8993;SDS011;4532;50.886;4.700;2023-08-24T03:52:20;9.98;;;6.88;;
8993;SDS011;4532;50.886;4.700;2023-08-24T03:54:50;8.93;;;7.00;;
8993;SDS011;4532;50.886;4.700;2023-08-24T03:57:19;10.25;;;6.88;;
8993;SDS011;4532;50.886;4.700;2023-08-24T03:59:47;7.90;;;6.80;;
8993;SDS011;4532;50.886;4.700;2023-08-24T04:02:16;8.45;;;6.55;;
8993;SDS011;4532;50.886;4.700;2023-08-24T04:04:44;8.35;;;6.38;;
8993;SDS011;4532;50.886;4.700;2023-08-24T04:07:11;9.63;;;6.50;;
8993;SDS011;4532;50.886;4.700;2023-08-24T04:09:38;7.78;;;6.35;;
8993;SDS011;4532;50.886;4.700;2023-08-24T04:12:05;8.38;;;6.13;;
8993;SDS011;4532;50.886;4.700;2023-08-24T04:14:35;6.35;;;5.70;;
8993;SDS011;4532;50.886;4.700;2023-08-24T04:17:05;9.38;;;6.18;;
8993;SDS011;4532;50.886;4.700;2023-08-24T04:19:37;9.07;;;6.63;;
8993;SDS011;4532;50.886;4.700;2023-08-24T04:22:09;7.45;;;5.97;;
8993;SDS011;4532;50.886;4.700;2023-08-24T04:24:41;7.32;;;6.20;;
8993;SDS011;4532;50.886;4.700;2023-08-24T04:27:08;8.25;;;6.18;;
8993;SDS011;4532;50.886;4.700;2023-08-24T04:29:40;6.50;;;5.88;;
8993;SDS011;4532;50.886;4.700;2023-08-24T04:32:10;9.00;;;6.38;;
8993;SDS011;4532;50.886;4.700;2023-08-24T04:34:37;8.43;;;6.53;;
8993;SDS011;4532;50.886;4.700;2023-08-24T04:37:05;7.32;;;6.22;;
8993;SDS011;4532;50.886;4.700;2023-08-24T04:39:33;7.95;;;5.80;;
8993;SDS011;4532;50.886;4.700;2023-08-24T04:42:04;8.63;;;5.80;;
8993;SDS011;4532;50.886;4.700;2023-08-24T04:44:32;8.50;;;5.85;;
8993;SDS011;4532;50.886;4.700;2023-08-24T04:47:00;10.20;;;6.07;;
8993;SDS011;4532;50.886;4.700;2023-08-24T04:49:27;9.02;;;5.90;;
8993;SDS011;4532;50.886;4.700;2023-08-24T04:51:56;6.85;;;5.53;;
8993;SDS011;4532;50.886;4.700;2023-08-24T04:54:23;6.03;;;5.10;;
8993;SDS011;4532;50.886;4.700;2023-08-24T04:56:53;8.93;;;5.95;;
8993;SDS011;4532;50.886;4.700;2023-08-24T04:59:22;6.47;;;5.72;;
8993;SDS011;4532;50.886;4.700;2023-08-24T05:01:49;7.82;;;5.57;;
8993;SDS011;4532;50.886;4.700;2023-08-24T05:04:17;7.90;;;5.75;;
8993;SDS011;4532;50.886;4.700;2023-08-24T05:06:46;6.97;;;5.65;;
8993;SDS011;4532;50.886;4.700;2023-08-24T05:09:13;7.78;;;5.57;;
8993;SDS011;4532;50.886;4.700;2023-08-24T05:11:43;7.32;;;5.57;;
8993;SDS011;4532;50.886;4.700;2023-08-24T05:14:12;7.72;;;5.75;;
8993;SDS011;4532;50.886;4.700;2023-08-24T05:16:40;8.48;;;5.50;;
8993;SDS011;4532;50.886;4.700;2023-08-24T05:19:08;8.70;;;5.22;;
8993;SDS011;4532;50.886;4.700;2023-08-24T05:21:37;7.22;;;4.78;;
8993;SDS011;4532;50.886;4.700;2023-08-24T05:24:04;7.57;;;5.10;;
8993;SDS011;4532;50.886;4.700;2023-08-24T05:26:36;6.07;;;5.00;;
8993;SDS011;4532;50.886;4.700;2023-08-24T05:29:05;12.23;;;4.95;;
8993;SDS011;4532;50.886;4.700;2023-08-24T05:31:33;6.72;;;4.53;;
8993;SDS011;4532;50.886;4.700;2023-08-24T05:34:02;5.90;;;4.40;;
8993;SDS011;4532;50.886;4.700;2023-08-24T05:36:34;5.53;;;4.22;;
8993;SDS011;4532;50.886;4.700;2023-08-24T05:39:01;7.72;;;4.60;;
8993;SDS011;4532;50.886;4.700;2023-08-24T05:41:32;6.55;;;4.45;;
8993;SDS011;4532;50.886;4.700;2023-08-24T05:44:00;7.82;;;4.43;;
8993;SDS011;4532;50.886;4.700;2023-08-24T05:46:27;6.53;;;4.45;;
8993;SDS011;4532;50.886;4.700;2023-08-24T05:48:58;5.97;;;4.38;;
8993;SDS011;4532;50.886;4.700;2023-08-24T05:51:30;6.15;;;4.18;;
8993;SDS011;4532;50.886;4.700;2023-08-24T05:53:57;6.85;;;4.53;;
8993;SDS011;4532;50.886;4.700;2023-08-24T05:56:27;6.50;;;4.10;;
8993;SDS011;4532;50.886;4.700;2023-08-24T05:58:54;9.60;;;4.53;;
8993;SDS011;4532;50.886;4.700;2023-08-24T06:01:26;7.38;;;4.55;;
8993;SDS011;4532;50.886;4.700;2023-08-24T06:03:53;5.68;;;4.47;;
8993;SDS011;4532;50.886;4.700;2023-08-24T06:06:21;6.97;;;4.45;;
8993;SDS011;4532;50.886;4.700;2023-08-24T06:08:48;5.75;;;4.22;;
8993;SDS011;4532;50.886;4.700;2023-08-24T06:11:18;5.95;;;4.05;;
8993;SDS011;4532;50.886;4.700;2023-08-24T06:13:52;5.55;;;4.40;;
8993;SDS011;4532;50.886;4.700;2023-08-24T06:16:26;5.93;;;4.00;;
8993;SDS011;4532;50.886;4.700;2023-08-24T06:18:59;9.23;;;4.28;;
8993;SDS011;4532;50.886;4.700;2023-08-24T06:21:26;9.07;;;4.68;;
8993;SDS011;4532;50.886;4.700;2023-08-24T06:23:56;8.10;;;4.13;;
8993;SDS011;4532;50.886;4.700;2023-08-24T06:26:27;15.13;;;5.32;;
8993;SDS011;4532;50.886;4.700;2023-08-24T06:28:55;11.13;;;4.85;;
8993;SDS011;4532;50.886;4.700;2023-08-24T06:31:24;10.85;;;5.40;;
8993;SDS011;4532;50.886;4.700;2023-08-24T06:33:56;8.75;;;4.88;;
8993;SDS011;4532;50.886;4.700;2023-08-24T06:36:24;11.98;;;5.38;;
8993;SDS011;4532;50.886;4.700;2023-08-24T06:38:53;10.85;;;4.63;;
8993;SDS011;4532;50.886;4.700;2023-08-24T06:41:20;7.65;;;4.40;;
8993;SDS011;4532;50.886;4.700;2023-08-24T06:43:48;8.18;;;4.40;;
8993;SDS011;4532;50.886;4.700;2023-08-24T06:46:17;6.88;;;4.40;;
8993;SDS011;4532;50.886;4.700;2023-08-24T06:48:45;6.03;;;4.20;;
8993;SDS011;4532;50.886;4.700;2023-08-24T06:51:15;5.70;;;4.30;;
8993;SDS011;4532;50.886;4.700;2023-08-24T06:53:44;5.60;;;4.35;;
8993;SDS011;4532;50.886;4.700;2023-08-24T06:56:13;9.00;;;4.50;;
8993;SDS011;4532;50.886;4.700;2023-08-24T06:58:44;6.47;;;4.35;;
8993;SDS011;4532;50.886;4.700;2023-08-24T07:01:14;6.03;;;4.30;;
8993;SDS011;4532;50.886;4.700;2023-08-24T07:03:42;7.93;;;4.68;;
8993;SDS011;4532;50.886;4.700;2023-08-24T07:06:10;7.85;;;4.63;;
8993;SDS011;4532;50.886;4.700;2023-08-24T07:08:40;13.77;;;5.38;;
8993;SDS011;4532;50.886;4.700;2023-08-24T07:11:07;7.50;;;4.22;;
8993;SDS011;4532;50.886;4.700;2023-08-24T07:13:39;8.38;;;4.63;;
8993;SDS011;4532;50.886;4.700;2023-08-24T07:16:07;6.85;;;4.07;;
8993;SDS011;4532;50.886;4.700;2023-08-24T07:18:36;6.97;;;4.30;;
8993;SDS011;4532;50.886;4.700;2023-08-24T07:21:04;5.97;;;4.25;;
8993;SDS011;4532;50.886;4.700;2023-08-24T07:23:31;8.27;;;4.25;;
8993;SDS011;4532;50.886;4.700;2023-08-24T07:25:58;5.00;;;4.13;;
8993;SDS011;4532;50.886;4.700;2023-08-24T07:28:25;8.90;;;4.65;;
8993;SDS011;4532;50.886;4.700;2023-08-24T07:30:52;7.72;;;4.10;;
8993;SDS011;4532;50.886;4.700;2023-08-24T07:33:25;7.40;;;3.97;;
8993;SDS011;4532;50.886;4.700;2023-08-24T07:35:53;5.85;;;4.30;;
8993;SDS011;4532;50.886;4.700;2023-08-24T07:38:23;9.07;;;4.13;;
8993;SDS011;4532;50.886;4.700;2023-08-24T07:40:53;6.07;;;4.03;;
8993;SDS011;4532;50.886;4.700;2023-08-24T07:43:20;8.13;;;4.32;;
8993;SDS011;4532;50.886;4.700;2023-08-24T07:45:49;7.40;;;3.65;;
8993;SDS011;4532;50.886;4.700;2023-08-24T07:48:19;6.93;;;4.25;;
8993;SDS011;4532;50.886;4.700;2023-08-24T07:50:49;11.68;;;4.78;;
8993;SDS011;4532;50.886;4.700;2023-08-24T07:53:18;10.30;;;4.53;;
8993;SDS011;4532;50.886;4.700;2023-08-24T07:55:48;7.03;;;4.65;;
8993;SDS011;4532;50.886;4.700;2023-08-24T07:58:21;11.43;;;4.13;;
8993;SDS011;4532;50.886;4.700;2023-08-24T08:00:50;6.75;;;4.07;;
8993;SDS011;4532;50.886;4.700;2023-08-24T08:03:22;5.88;;;3.67;;
8993;SDS011;4532;50.886;4.700;2023-08-24T08:05:52;6.40;;;3.78;;
8993;SDS011;4532;50.886;4.700;2023-08-24T08:08:22;5.22;;;4.10;;
8993;SDS011;4532;50.886;4.700;2023-08-24T08:10:56;5.78;;;4.00;;
8993;SDS011;4532;50.886;4.700;2023-08-24T08:13:30;5.93;;;4.03;;
8993;SDS011;4532;50.886;4.700;2023-08-24T08:16:04;6.10;;;3.53;;
8993;SDS011;4532;50.886;4.700;2023-08-24T08:18:33;6.38;;;3.92;;
8993;SDS011;4532;50.886;4.700;2023-08-24T08:21:06;5.68;;;3.85;;
8993;SDS011;4532;50.886;4.700;2023-08-24T08:23:36;6.13;;;4.28;;
8993;SDS011;4532;50.886;4.700;2023-08-24T08:26:07;6.88;;;4.38;;
8993;SDS011;4532;50.886;4.700;2023-08-24T08:28:39;5.75;;;3.67;;
8993;SDS011;4532;50.886;4.700;2023-08-24T08:31:06;6.78;;;4.03;;
8993;SDS011;4532;50.886;4.700;2023-08-24T08:33:33;5.70;;;3.75;;
8993;SDS011;4532;50.886;4.700;2023-08-24T08:36:01;6.68;;;3.65;;
8993;SDS011;4532;50.886;4.700;2023-08-24T08:38:28;5.32;;;3.67;;
8993;SDS011;4532;50.886;4.700;2023-08-24T08:41:02;6.15;;;3.85;;
8993;SDS011;4532;50.886;4.700;2023-08-24T08:43:32;4.68;;;3.45;;
8993;SDS011;4532;50.886;4.700;2023-08-24T08:45:59;9.07;;;4.00;;
8993;SDS011;4532;50.886;4.700;2023-08-24T08:48:35;6.05;;;3.90;;
8993;SDS011;4532;50.886;4.700;2023-08-24T08:51:06;5.93;;;3.53;;
8993;SDS011;4532;50.886;4.700;2023-08-24T08:53:35;6.70;;;3.80;;
8993;SDS011;4532;50.886;4.700;2023-08-24T08:56:04;5.47;;;3.53;;
8993;SDS011;4532;50.886;4.700;2023-08-24T08:58:36;21.13;;;5.60;;
8993;SDS011;4532;50.886;4.700;2023-08-24T09:01:03;26.33;;;6.18;;
8993;SDS011;4532;50.886;4.700;2023-08-24T09:03:32;35.80;;;9.32;;
8993;SDS011;4532;50.886;4.700;2023-08-24T09:06:01;15.30;;;4.82;;
8993;SDS011;4532;50.886;4.700;2023-08-24T09:08:33;30.00;;;7.10;;
8993;SDS011;4532;50.886;4.700;2023-08-24T09:11:01;16.35;;;5.18;;
8993;SDS011;4532;50.886;4.700;2023-08-24T09:13:29;18.20;;;5.90;;
8993;SDS011;4532;50.886;4.700;2023-08-24T09:16:03;33.20;;;7.55;;
8993;SDS011;4532;50.886;4.700;2023-08-24T09:18:38;23.98;;;5.85;;
8993;SDS011;4532;50.886;4.700;2023-08-24T09:21:10;24.58;;;6.07;;
8993;SDS011;4532;50.886;4.700;2023-08-24T09:23:38;16.05;;;4.75;;
8993;SDS011;4532;50.886;4.700;2023-08-24T09:26:11;19.15;;;5.13;;
8993;SDS011;4532;50.886;4.700;2023-08-24T09:28:42;15.45;;;5.32;;
8993;SDS011;4532;50.886;4.700;2023-08-24T09:31:14;17.20;;;4.60;;
8993;SDS011;4532;50.886;4.700;2023-08-24T09:33:43;6.07;;;3.67;;
8993;SDS011;4532;50.886;4.700;2023-08-24T09:36:16;5.95;;;3.83;;
8993;SDS011;4532;50.886;4.700;2023-08-24T09:38:47;7.15;;;3.80;;
8993;SDS011;4532;50.886;4.700;2023-08-24T09:41:15;6.13;;;3.50;;
8993;SDS011;4532;50.886;4.700;2023-08-24T09:43:45;6.22;;;3.50;;
8993;SDS011;4532;50.886;4.700;2023-08-24T09:46:12;8.05;;;3.45;;
8993;SDS011;4532;50.886;4.700;2023-08-24T09:48:52;8.07;;;3.67;;
8993;SDS011;4532;50.886;4.700;2023-08-24T09:51:25;5.57;;;3.80;;
8993;SDS011;4532;50.886;4.700;2023-08-24T09:53:56;8.50;;;3.85;;
8993;SDS011;4532;50.886;4.700;2023-08-24T09:56:27;9.88;;;3.70;;
8993;SDS011;4532;50.886;4.700;2023-08-24T09:59:00;10.60;;;3.80;;
8993;SDS011;4532;50.886;4.700;2023-08-24T10:01:31;6.53;;;3.45;;
8993;SDS011;4532;50.886;4.700;2023-08-24T10:04:01;5.00;;;3.75;;
8993;SDS011;4532;50.886;4.700;2023-08-24T10:06:35;6.10;;;3.67;;
8993;SDS011;4532;50.886;4.700;2023-08-24T10:09:04;8.40;;;4.18;;
8993;SDS011;4532;50.886;4.700;2023-08-24T10:11:40;9.50;;;4.00;;
8993;SDS011;4532;50.886;4.700;2023-08-24T10:14:26;8.85;;;4.22;;
8993;SDS011;4532;50.886;4.700;2023-08-24T10:17:00;8.45;;;4.32;;
8993;SDS011;4532;50.886;4.700;2023-08-24T10:19:32;5.63;;;4.07;;
8993;SDS011;4532;50.886;4.700;2023-08-24T10:22:05;6.53;;;4.15;;
8993;SDS011;4532;50.886;4.700;2023-08-24T10:24:36;6.20;;;3.97;;
8993;SDS011;4532;50.886;4.700;2023-08-24T10:27:04;6.35;;;4.25;;
8993;SDS011;4532;50.886;4.700;2023-08-24T10:29:35;9.13;;;4.03;;
8993;SDS011;4532;50.886;4.700;2023-08-24T10:32:07;9.30;;;4.30;;
8993;SDS011;4532;50.886;4.700;2023-08-24T10:34:41;6.57;;;4.30;;
8993;SDS011;4532;50.886;4.700;2023-08-24T10:37:10;10.00;;;4.82;;
8993;SDS011;4532;50.886;4.700;2023-08-24T10:39:47;10.68;;;4.60;;
8993;SDS011;4532;50.886;4.700;2023-08-24T10:42:14;9.13;;;3.80;;
8993;SDS011;4532;50.886;4.700;2023-08-24T10:44:47;9.55;;;4.75;;
8993;SDS011;4532;50.886;4.700;2023-08-24T10:52:24;8.65;;;4.43;;
8993;SDS011;4532;50.886;4.700;2023-08-24T10:54:55;8.05;;;4.65;;
8993;SDS011;4532;50.886;4.700;2023-08-24T10:59:59;8.57;;;4.20;;
8993;SDS011;4532;50.886;4.700;2023-08-24T11:02:46;7.47;;;4.35;;
8993;SDS011;4532;50.886;4.700;2023-08-24T11:05:21;9.88;;;4.55;;
8993;SDS011;4532;50.886;4.700;2023-08-24T11:10:35;5.82;;;4.22;;
8993;SDS011;4532;50.886;4.700;2023-08-24T11:13:19;7.28;;;4.22;;
8993;SDS011;4532;50.886;4.700;2023-08-24T11:15:54;6.03;;;4.05;;
8993;SDS011;4532;50.886;4.700;2023-08-24T11:18:28;11.70;;;4.47;;
8993;SDS011;4532;50.886;4.700;2023-08-24T11:21:03;8.13;;;4.80;;
8993;SDS011;4532;50.886;4.700;2023-08-24T11:23:36;6.40;;;4.00;;
8993;SDS011;4532;50.886;4.700;2023-08-24T11:26:04;6.72;;;3.92;;
8993;SDS011;4532;50.886;4.700;2023-08-24T11:28:31;6.78;;;4.60;;
8993;SDS011;4532;50.886;4.700;2023-08-24T11:30:58;6.75;;;4.55;;
8993;SDS011;4532;50.886;4.700;2023-08-24T11:33:29;10.60;;;4.90;;
8993;SDS011;4532;50.886;4.700;2023-08-24T11:35:58;8.48;;;4.50;;
8993;SDS011;4532;50.886;4.700;2023-08-24T11:38:38;7.13;;;4.15;;
8993;SDS011;4532;50.886;4.700;2023-08-24T11:41:13;7.32;;;4.38;;
8993;SDS011;4532;50.886;4.700;2023-08-24T11:43:42;7.47;;;4.38;;
8993;SDS011;4532;50.886;4.700;2023-08-24T11:46:11;7.35;;;4.60;;
8993;SDS011;4532;50.886;4.700;2023-08-24T11:48:44;6.45;;;4.63;;
8993;SDS011;4532;50.886;4.700;2023-08-24T11:51:12;7.00;;;4.28;;
8993;SDS011;4532;50.886;4.700;2023-08-24T11:53:45;5.85;;;4.00;;
8993;SDS011;4532;50.886;4.700;2023-08-24T11:56:17;14.32;;;4.88;;
8993;SDS011;4532;50.886;4.700;2023-08-24T11:58:52;7.80;;;4.60;;
8993;SDS011;4532;50.886;4.700;2023-08-24T12:01:19;7.45;;;4.38;;
8993;SDS011;4532;50.886;4.700;2023-08-24T12:03:47;8.23;;;4.38;;
8993;SDS011;4532;50.886;4.700;2023-08-24T12:06:17;8.00;;;4.20;;
8993;SDS011;4532;50.886;4.700;2023-08-24T12:08:47;7.05;;;4.40;;
8993;SDS011;4532;50.886;4.700;2023-08-24T12:11:18;7.05;;;4.35;;
8993;SDS011;4532;50.886;4.700;2023-08-24T12:13:52;5.82;;;3.83;;
8993;SDS011;4532;50.886;4.700;2023-08-24T12:16:24;5.53;;;3.55;;
8993;SDS011;4532;50.886;4.700;2023-08-24T12:18:57;7.30;;;3.90;;
8993;SDS011;4532;50.886;4.700;2023-08-24T12:21:29;6.97;;;3.92;;
8993;SDS011;4532;50.886;4.700;2023-08-24T12:23:57;7.07;;;4.18;;
8993;SDS011;4532;50.886;4.700;2023-08-24T12:26:28;8.57;;;4.50;;
8993;SDS011;4532;50.886;4.700;2023-08-24T12:28:59;6.70;;;4.72;;
8993;SDS011;4532;50.886;4.700;2023-08-24T12:31:29;5.85;;;4.40;;
8993;SDS011;4532;50.886;4.700;2023-08-24T12:33:58;5.45;;;4.30;;
8993;SDS011;4532;50.886;4.700;2023-08-24T12:36:32;7.90;;;4.72;;
8993;SDS011;4532;50.886;4.700;2023-08-24T12:39:04;6.60;;;4.65;;
8993;SDS011;4532;50.886;4.700;2023-08-24T12:41:37;6.53;;;4.45;;
8993;SDS011;4532;50.886;4.700;2023-08-24T12:44:06;5.97;;;3.90;;
8993;SDS011;4532;50.886;4.700;2023-08-24T12:46:39;5.22;;;3.72;;
8993;SDS011;4532;50.886;4.700;2023-08-24T12:49:06;7.38;;;4.20;;
8993;SDS011;4532;50.886;4.700;2023-08-24T12:51:38;4.45;;;3.60;;
8993;SDS011;4532;50.886;4.700;2023-08-24T12:54:11;6.38;;;3.75;;
8993;SDS011;4532;50.886;4.700;2023-08-24T12:56:41;4.88;;;3.38;;
8993;SDS011;4532;50.886;4.700;2023-08-24T12:59:11;6.05;;;3.10;;
8993;SDS011;4532;50.886;4.700;2023-08-24T13:01:43;5.20;;;3.35;;
8993;SDS011;4532;50.886;4.700;2023-08-24T13:04:10;12.82;;;4.65;;
8993;SDS011;4532;50.886;4.700;2023-08-24T13:06:40;7.22;;;3.60;;
8993;SDS011;4532;50.886;4.700;2023-08-24T13:09:07;6.03;;;3.42;;
8993;SDS011;4532;50.886;4.700;2023-08-24T13:11:34;6.05;;;3.17;;
8993;SDS011;4532;50.886;4.700;2023-08-24T13:14:04;8.23;;;3.30;;
8993;SDS011;4532;50.886;4.700;2023-08-24T13:16:35;5.93;;;2.80;;
8993;SDS011;4532;50.886;4.700;2023-08-24T13:19:03;4.82;;;2.80;;
8993;SDS011;4532;50.886;4.700;2023-08-24T13:21:30;6.10;;;2.95;;
8993;SDS011;4532;50.886;4.700;2023-08-24T13:23:57;3.92;;;2.53;;
8993;SDS011;4532;50.886;4.700;2023-08-24T13:26:24;4.38;;;2.80;;
8993;SDS011;4532;50.886;4.700;2023-08-24T13:28:52;4.45;;;2.63;;
8993;SDS011;4532;50.886;4.700;2023-08-24T13:31:21;4.45;;;2.78;;
8993;SDS011;4532;50.886;4.700;2023-08-24T13:33:51;5.22;;;2.58;;
8993;SDS011;4532;50.886;4.700;2023-08-24T13:36:18;5.20;;;2.63;;
8993;SDS011;4532;50.886;4.700;2023-08-24T13:38:45;3.95;;;2.53;;
8993;SDS011;4532;50.886;4.700;2023-08-24T13:41:12;4.35;;;2.40;;
8993;SDS011;4532;50.886;4.700;2023-08-24T13:43:47;4.38;;;2.30;;
8993;SDS011;4532;50.886;4.700;2023-08-24T13:46:14;5.35;;;2.28;;
8993;SDS011;4532;50.886;4.700;2023-08-24T13:48:41;2.67;;;1.85;;
8993;SDS011;4532;50.886;4.700;2023-08-24T13:51:08;6.25;;;2.40;;
8993;SDS011;4532;50.886;4.700;2023-08-24T13:53:41;5.03;;;2.17;;
8993;SDS011;4532;50.886;4.700;2023-08-24T13:56:10;3.90;;;2.20;;
8993;SDS011;4532;50.886;4.700;2023-08-24T13:58:38;2.70;;;2.08;;
8993;SDS011;4532;50.886;4.700;2023-08-24T14:01:05;4.13;;;2.00;;
8993;SDS011;4532;50.886;4.700;2023-08-24T14:03:32;4.57;;;2.10;;
8993;SDS011;4532;50.886;4.700;2023-08-24T14:06:00;2.60;;;1.85;;
8993;SDS011;4532;50.886;4.700;2023-08-24T14:08:30;2.63;;;1.73;;
8993;SDS011;4532;50.886;4.700;2023-08-24T14:10:57;4.88;;;2.13;;
8993;SDS011;4532;50.886;4.700;2023-08-24T14:13:24;2.70;;;1.70;;
8993;SDS011;4532;50.886;4.700;2023-08-24T14:15:51;4.03;;;1.80;;
8993;SDS011;4532;50.886;4.700;2023-08-24T14:18:19;2.92;;;1.67;;
8993;SDS011;4532;50.886;4.700;2023-08-24T14:20:49;3.80;;;1.70;;
8993;SDS011;4532;50.886;4.700;2023-08-24T14:23:19;4.05;;;1.83;;
8993;SDS011;4532;50.886;4.700;2023-08-24T14:25:46;4.38;;;1.88;;
8993;SDS011;4532;50.886;4.700;2023-08-24T14:28:19;3.25;;;1.55;;
8993;SDS011;4532;50.886;4.700;2023-08-24T14:30:51;3.42;;;1.88;;
8993;SDS011;4532;50.886;4.700;2023-08-24T14:33:23;3.40;;;1.92;;
8993;SDS011;4532;50.886;4.700;2023-08-24T14:35:53;3.45;;;1.85;;
8993;SDS011;4532;50.886;4.700;2023-08-24T14:38:22;2.88;;;1.50;;
8993;SDS011;4532;50.886;4.700;2023-08-24T14:40:52;3.45;;;1.80;;
8993;SDS011;4532;50.886;4.700;2023-08-24T14:43:19;3.95;;;1.60;;
8993;SDS011;4532;50.886;4.700;2023-08-24T14:45:51;4.07;;;1.40;;
8993;SDS011;4532;50.886;4.700;2023-08-24T14:48:19;4.32;;;2.00;;
8993;SDS011;4532;50.886;4.700;2023-08-24T14:50:48;3.65;;;1.58;;
8993;SDS011;4532;50.886;4.700;2023-08-24T14:53:18;4.75;;;1.60;;
8993;SDS011;4532;50.886;4.700;2023-08-24T14:55:47;3.10;;;1.63;;
8993;SDS011;4532;50.886;4.700;2023-08-24T14:58:14;6.65;;;2.10;;
8993;SDS011;4532;50.886;4.700;2023-08-24T15:00:41;7.03;;;1.92;;
8993;SDS011;4532;50.886;4.700;2023-08-24T15:03:08;3.45;;;1.60;;
8993;SDS011;4532;50.886;4.700;2023-08-24T15:05:43;3.35;;;1.45;;
8993;SDS011;4532;50.886;4.700;2023-08-24T15:08:13;3.58;;;1.58;;
8993;SDS011;4532;50.886;4.700;2023-08-24T15:10:41;2.83;;;1.58;;
8993;SDS011;4532;50.886;4.700;2023-08-24T15:13:08;3.65;;;1.60;;
8993;SDS011;4532;50.886;4.700;2023-08-24T15:15:35;2.55;;;1.45;;
8993;SDS011;4532;50.886;4.700;2023-08-24T15:18:04;2.47;;;1.42;;
8993;SDS011;4532;50.886;4.700;2023-08-24T15:20:34;2.53;;;1.60;;
8993;SDS011;4532;50.886;4.700;2023-08-24T15:23:03;2.25;;;1.40;;
8993;SDS011;4532;50.886;4.700;2023-08-24T15:25:36;2.83;;;1.50;;
8993;SDS011;4532;50.886;4.700;2023-08-24T15:28:05;2.10;;;1.30;;
8993;SDS011;4532;50.886;4.700;2023-08-24T15:30:33;2.83;;;1.70;;
8993;SDS011;4532;50.886;4.700;2023-08-24T15:33:04;2.58;;;1.35;;
8993;SDS011;4532;50.886;4.700;2023-08-24T15:35:31;2.63;;;1.27;;
8993;SDS011;4532;50.886;4.700;2023-08-24T15:38:01;1.92;;;1.30;;
8993;SDS011;4532;50.886;4.700;2023-08-24T15:40:29;3.15;;;1.20;;
8993;SDS011;4532;50.886;4.700;2023-08-24T15:43:00;3.72;;;1.42;;
8993;SDS011;4532;50.886;4.700;2023-08-24T15:45:28;4.35;;;1.20;;
8993;SDS011;4532;50.886;4.700;2023-08-24T15:47:57;4.30;;;1.45;;
8993;SDS011;4532;50.886;4.700;2023-08-24T15:50:30;1.52;;;1.10;;